METAR Data
IDs: Format: Raw Decoded Include TAF

Data at: 0107 UTC 20 Jan 2022

KTEX 200055Z AUTO 27012KT 10SM CLR M02/M08 A3014 RMK AO2
KTEX 200035Z AUTO 27012KT 10SM CLR M02/M08 A3012 RMK AO2
KTEX 200015Z AUTO 26009KT 10SM CLR M01/M08 A3012 RMK AO2
KTEX 192355Z AUTO 27012KT 10SM CLR M01/M08 A3011 RMK AO2
KTEX 192335Z AUTO 27012G19KT 10SM CLR 00/M09 A3010 RMK AO2
KTEX 192315Z AUTO 27011G17KT 10SM CLR 00/M09 A3010 RMK AO2
KTEX 192255Z AUTO 27012KT 10SM CLR 00/M09 A3010 RMK AO2
KTEX 192235Z AUTO 27008KT 10SM SCT095 01/M08 A3009 RMK AO2
KTEX 192215Z AUTO 27009KT 10SM SCT095 01/M08 A3009 RMK AO2
KTEX 192155Z AUTO 27012G17KT 10SM SCT095 01/M08 A3009 RMK AO2
KTEX 192135Z AUTO 27013G19KT 10SM SCT095 01/M07 A3008 RMK AO2
KTEX 192115Z AUTO 27013KT 10SM SCT110 00/M07 A3008 RMK AO2
KTEX 192055Z AUTO 27015G19KT 10SM CLR 01/M07 A3008 RMK AO2
KTEX 192035Z AUTO 27014G19KT 10SM CLR 01/M07 A3008 RMK AO2
KTEX 192015Z AUTO 27011KT 10SM CLR 01/M07 A3008 RMK AO2
KTEX 191955Z AUTO 27011G15KT 10SM CLR 01/M07 A3008 RMK AO2
KTEX 191935Z AUTO 26010KT 10SM CLR 01/M07 A3008 RMK AO2
KTEX 191915Z AUTO 26008KT 10SM CLR 01/M07 A3009 RMK AO2
KTEX 191855Z AUTO 27007KT 10SM CLR 00/M07 A3010 RMK AO2
KTEX 191835Z AUTO 27007KT 10SM CLR 00/M06 A3010 RMK AO2
KTEX 191815Z AUTO 25006KT 10SM CLR 00/M07 A3010 RMK AO2
KTEX 191755Z AUTO 24003KT 10SM CLR 00/M07 A3011 RMK AO2
KTEX 191735Z AUTO 00000KT 10SM CLR 00/M07 A3011 RMK AO2
KTEX 191715Z AUTO 00000KT 10SM SCT110 M02/M07 A3011 RMK AO2
KTEX 191655Z AUTO 00000KT 10SM SCT110 M03/M07 A3010 RMK AO2
KTEX 191635Z AUTO 11003KT 10SM SCT110 M03/M08 A3010 RMK AO2
KTEX 191615Z AUTO 12003KT 10SM SCT110 M04/M08 A3010 RMK AO2
KTEX 191555Z AUTO 12005KT 10SM SCT110 M05/M08 A3010 RMK AO2
KTEX 191535Z AUTO 13005KT 10SM BKN110 M06/M08 A3010 RMK AO2
KTEX 191515Z AUTO 13006KT 10SM SCT120 M06/M09 A3010 RMK AO2
KTEX 191455Z AUTO 15005KT 10SM CLR M06/M08 A3009 RMK AO2
KTEX 191435Z AUTO 11004KT 10SM CLR M07/M09 A3009 RMK AO2
KTEX 191415Z AUTO 14007KT 10SM CLR M07/M09 A3008 RMK AO2
KTEX 191355Z AUTO 14006KT 10SM CLR M07/M09 A3008 RMK AO2
KTEX 191335Z AUTO 00000KT 10SM CLR M07/M08 A3008 RMK AO2
KTEX 191315Z AUTO 15004KT 10SM CLR M06/M08 A3008 RMK AO2
KTEX 191255Z AUTO 13005KT 10SM CLR M06/M08 A3007 RMK AO2
KTEX 191235Z AUTO 00000KT 10SM CLR M06/M07 A3007 RMK AO2
KTEX 191215Z AUTO 00000KT 10SM CLR M06/M08 A3006 RMK AO2
KTEX 191155Z AUTO 10004KT 10SM CLR M05/M07 A3006 RMK AO2
KTEX 191135Z AUTO 13003KT 10SM CLR M05/M07 A3006 RMK AO2
KTEX 191115Z AUTO 16005KT 10SM CLR M05/M07 A3006 RMK AO2
KTEX 191055Z AUTO 13004KT 10SM CLR M06/M08 A3006 RMK AO2
KTEX 191035Z AUTO 14004KT 10SM CLR M05/M07 A3006 RMK AO2
KTEX 191015Z AUTO 13003KT 10SM CLR M05/M06 A3006 RMK AO2
KTEX 190955Z AUTO 14005KT 10SM SCT100 SCT120 M05/M06 A3005 RMK AO2
KTEX 190935Z AUTO 14003KT 10SM SCT110 M05/M06 A3005 RMK AO2
KTEX 190915Z AUTO 13004KT 10SM SCT085 M05/M06 A3005 RMK AO2
KTEX 190855Z AUTO 14003KT 10SM SCT095 SCT110 M05/M07 A3005 RMK AO2
KTEX 190835Z AUTO 13003KT 10SM SCT085 M05/M05 A3005 RMK AO2
KTEX 190815Z AUTO 13004KT 10SM BKN085 OVC110 M05/M05 A3005 RMK AO2
KTEX 190755Z AUTO 14005KT 10SM SCT075 BKN085 OVC110 M05/M05 A3004 RMK AO2
KTEX 190735Z AUTO 00000KT 10SM OVC095 M05/M05 A3004 RMK AO2
KTEX 190715Z AUTO 10003KT 10SM BKN095 BKN120 M04/M05 A3005 RMK AO2
KTEX 190655Z AUTO 12003KT 10SM SCT065 SCT075 BKN085 M04/M05 A3006 RMK AO2
KTEX 190635Z AUTO 14003KT 10SM BKN080 OVC100 M04/M05 A3005 RMK AO2
KTEX 190615Z AUTO 00000KT 10SM BKN100 BKN120 M04/M05 A3005 RMK AO2
KTEX 190555Z AUTO 00000KT 10SM SCT065 M03/M04 A3005 RMK AO2
KTEX 190535Z AUTO 00000KT 10SM SCT065 BKN080 BKN090 M04/M05 A3005 RMK AO2
KTEX 190515Z AUTO 00000KT 10SM SCT036 SCT045 OVC090 M03/M05 A3005 RMK AO2
KTEX 190455Z AUTO 00000KT 7SM BKN038 OVC046 M03/M04 A3004 RMK AO2
KTEX 190435Z AUTO 00000KT 5SM -SN BKN038 OVC048 M03/M05 A3004 RMK AO2
KTEX 190415Z AUTO 00000KT 7SM -SN SCT040 BKN049 OVC060 M03/M05 A3005 RMK AO2
KTEX 190355Z AUTO 00000KT 10SM SCT049 OVC060 M03/M05 A3005 RMK AO2
KTEX 190335Z AUTO 00000KT 10SM SCT048 OVC065 M03/M05 A3005 RMK AO2
KTEX 190315Z AUTO 26003KT 10SM SCT032 BKN046 OVC100 M03/M05 A3005 RMK AO2
KTEX 190255Z AUTO 26003KT 5SM BR BKN032 OVC037 M03/M05 A3004 RMK AO2
KTEX 190235Z AUTO 26003KT 5SM -SN BKN034 OVC041 M03/M05 A3004 RMK AO2
KTEX 190215Z AUTO 26004KT 7SM BKN041 OVC049 M02/M06 A3004 RMK AO2
KTEX 190155Z AUTO 26005KT 10SM SCT037 OVC046 M02/M06 A3004 RMK AO2
KTEX 190135Z AUTO 00000KT 10SM SCT031 SCT037 OVC044 M01/M08 A3004 RMK AO2
KTEX 190115Z AUTO 00000KT 10SM SCT038 BKN050 OVC070 M01/M09 A3003 RMK AO2
KTEX 190055Z AUTO 00000KT 10SM BKN060 OVC070 M01/M09 A3003 RMK AO2
KTEX 190035Z AUTO 25003KT 10SM SCT045 BKN055 OVC070 00/M09 A3002 RMK AO2
KTEX 190015Z AUTO 25006KT 10SM SCT045 SCT050 OVC065 00/M09 A3002 RMK AO2
KTEX 182355Z AUTO 26007KT 10SM SCT050 BKN075 OVC085 00/M09 A3001 RMK AO2
KTEX 182335Z AUTO 26008KT 10SM OVC090 00/M09 A3001 RMK AO2
KTEX 182315Z AUTO 27008KT 10SM OVC100 00/M09 A3000 RMK AO2
KTEX 182255Z AUTO 26007KT 10SM BKN110 00/M09 A3000 RMK AO2
KTEX 182235Z AUTO 26006KT 10SM SCT120 00/M09 A3001 RMK AO2
KTEX 182215Z AUTO 25007KT 10SM SCT060 SCT070 BKN120 00/M09 A3001 RMK AO2
KTEX 182155Z AUTO 26010G17KT 10SM OVC065 01/M09 A2999 RMK AO2
KTEX 182135Z AUTO 27011G18KT 10SM OVC055 01/M10 A2999 RMK AO2
KTEX 182115Z AUTO 27015KT 10SM OVC055 01/M10 A2999 RMK AO2
KTEX 182055Z AUTO 28015G19KT 10SM OVC055 01/M10 A2999 RMK AO2
KTEX 182035Z AUTO 28013G21KT 10SM BKN055 01/M10 A2999 RMK AO2
KTEX 182015Z AUTO 27014KT 10SM SCT055 02/M09 A2999 RMK AO2
KTEX 181955Z AUTO 27012KT 10SM BKN055 02/M08 A3000 RMK AO2
KTEX 181935Z AUTO 27010KT 10SM SCT055 02/M10 A3001 RMK AO2
KTEX 181915Z AUTO 26007KT 10SM BKN055 03/M12 A3001 RMK AO2
KTEX 181855Z AUTO 28005KT 10SM OVC055 04/M13 A3003 RMK AO2
KTEX 181835Z AUTO 00000KT 10SM OVC055 02/M14 A3004 RMK AO2
KTEX 181815Z AUTO 00000KT 10SM BKN055 02/M14 A3005 RMK AO2
KTEX 181755Z AUTO 00000KT 10SM SCT055 SCT100 01/M15 A3006 RMK AO2
KTEX 181735Z AUTO 00000KT 10SM OVC100 00/M15 A3006 RMK AO2
KTEX 181715Z AUTO 00000KT 10SM BKN100 00/M15 A3006 RMK AO2
KTEX 181655Z AUTO 00000KT 10SM SCT100 M01/M15 A3007 RMK AO2
KTEX 181635Z AUTO 00000KT 10SM CLR M02/M17 A3006 RMK AO2
KTEX 181615Z AUTO 00000KT 10SM SCT100 M02/M17 A3006 RMK AO2
KTEX 181555Z AUTO 18003KT 10SM SCT040 SCT100 M03/M17 A3006 RMK AO2
KTEX 181535Z AUTO 00000KT 10SM SCT040 M05/M18 A3006 RMK AO2
KTEX 181515Z AUTO 15003KT 10SM CLR M04/M18 A3006 RMK AO2
KTEX 181455Z AUTO 15005KT 10SM CLR M05/M18 A3006 RMK AO2
KTEX 181435Z AUTO 14005KT 10SM CLR M05/M19 A3006 RMK AO2
KTEX 181415Z AUTO 14005KT 10SM CLR M05/M19 A3006 RMK AO2
KTEX 181355Z AUTO 15007KT 10SM CLR M05/M19 A3006 RMK AO2
KTEX 181335Z AUTO 15006KT 10SM CLR M04/M20 A3007 RMK AO2
KTEX 181315Z AUTO 14007KT 10SM CLR M05/M20 A3007 RMK AO2